ADDS METAR Data INFO
IDs: Format: Raw Decoded Include TAF

Data at: 0857 UTC 19 Jun 2018

KCLL 190853Z AUTO 09007KT 10SM BKN010 BKN014 24/23 A2991 RMK AO2 CIG 007V012 SLP123 T02390233 55014